Time;durP1;ratioP1;P1;durP2;ratioP2;P2;SDS_P1;SDS_P2;PMS_P1;PMS_P2;Temp;Humidity;BMP_temperature;BMP_pressure;BME280_temperature;BME280_humidity;BME280_pressure;Samples;Min_cycle;Max_cycle;Signal;HPM_P1;HPM_P2
2022/01/30 00:00:35;;;;;;;1.43;0.83;;;6.90;66.30;;;;;;5160389;27;45934;-63
2022/01/30 00:03:01;;;;;;;2.17;1.00;;;6.90;66.20;;;;;;5154767;27;46384;-64
2022/01/30 00:05:27;;;;;;;1.57;0.90;;;6.90;67.20;;;;;;5151695;27;46436;-63
2022/01/30 00:07:53;;;;;;;0.90;0.73;;;6.90;67.30;;;;;;5157449;27;46299;-63
2022/01/30 00:10:19;;;;;;;2.27;0.70;;;6.90;67.20;;;;;;5151849;27;46539;-64
2022/01/30 00:12:57;;;;;;;1.20;0.87;;;6.80;67.20;;;;;;5152331;27;47051;-64
2022/01/30 00:15:36;;;;;;;1.37;0.83;;;6.80;67.40;;;;;;5156427;27;46420;-63
2022/01/30 00:21:29;;;;;;;2.00;0.90;;;6.70;67.90;;;;;;5133511;27;46586;-63
2022/01/30 00:24:06;;;;;;;1.00;0.83;;;6.70;68.50;;;;;;5150613;27;46438;-63
2022/01/30 00:26:34;;;;;;;1.10;0.80;;;6.60;69.30;;;;;;5150338;27;46407;-63
2022/01/30 00:29:00;;;;;;;1.33;0.70;;;6.50;69.80;;;;;;5153019;27;46370;-63
2022/01/30 00:31:27;;;;;;;1.30;0.83;;;6.60;69.50;;;;;;5152923;27;46615;-63
2022/01/30 00:33:54;;;;;;;1.17;0.87;;;6.60;69.50;;;;;;5154082;27;46392;-63
2022/01/30 00:36:19;;;;;;;1.10;0.70;;;6.60;69.50;;;;;;5158196;27;46228;-63
2022/01/30 00:38:45;;;;;;;1.40;0.80;;;6.60;69.50;;;;;;5154986;27;46372;-62
2022/01/30 00:41:12;;;;;;;1.10;0.80;;;6.60;69.20;;;;;;5158669;27;46388;-64
2022/01/30 00:43:37;;;;;;;1.13;0.80;;;6.70;69.00;;;;;;5154008;27;46198;-64
2022/01/30 00:46:03;;;;;;;1.40;1.00;;;6.70;69.20;;;;;;5164181;27;45757;-63
2022/01/30 00:48:29;;;;;;;1.53;0.90;;;6.70;69.20;;;;;;5153061;27;46432;-63
2022/01/30 00:50:55;;;;;;;1.40;0.90;;;6.70;70.20;;;;;;5154789;27;46594;-63
2022/01/30 00:53:21;;;;;;;1.73;0.90;;;6.70;69.10;;;;;;5153685;27;46462;-64
2022/01/30 00:55:46;;;;;;;1.07;0.70;;;6.70;69.20;;;;;;5151656;27;46349;-62
2022/01/30 00:58:12;;;;;;;1.57;0.80;;;6.60;70.00;;;;;;5155396;27;46442;-64
2022/01/30 01:00:38;;;;;;;0.90;0.70;;;6.60;70.00;;;;;;5158901;27;46382;-63
2022/01/30 01:03:04;;;;;;;1.07;0.90;;;6.60;70.10;;;;;;5158833;27;47161;-63
2022/01/30 01:05:33;;;;;;;1.47;0.90;;;6.60;70.00;;;;;;5154128;27;46255;-63
2022/01/30 01:08:02;;;;;;;1.00;0.80;;;6.60;70.10;;;;;;5148661;27;46406;-63
2022/01/30 01:10:46;;;;;;;0.90;0.70;;;6.50;71.00;;;;;;5153993;27;46240;-63
2022/01/30 01:24:00;;;;;;;1.30;0.90;;;6.60;70.70;;;;;;5154212;27;46118;-64
2022/01/30 01:26:26;;;;;;;1.10;0.80;;;6.60;70.70;;;;;;5154721;27;45826;-63
2022/01/30 01:28:52;;;;;;;1.37;0.87;;;6.60;70.60;;;;;;5154255;27;46399;-64
2022/01/30 01:31:18;;;;;;;1.23;0.87;;;6.60;70.40;;;;;;5153041;27;46801;-63
2022/01/30 01:36:16;;;;;;;1.10;0.80;;;6.70;70.20;;;;;;5158372;27;46397;-63
2022/01/30 01:38:42;;;;;;;0.90;0.70;;;6.70;70.10;;;;;;5154148;27;46312;-63
2022/01/30 01:41:08;;;;;;;1.60;1.03;;;6.70;70.10;;;;;;5150851;27;46631;-63
2022/01/30 01:43:35;;;;;;;1.07;0.70;;;6.70;69.90;;;;;;5152753;27;46963;-64
2022/01/30 01:46:02;;;;;;;1.27;0.80;;;6.70;70.60;;;;;;5155062;27;46345;-62
2022/01/30 01:48:33;;;;;;;1.43;0.90;;;6.70;70.00;;;;;;5158520;27;46375;-63
2022/01/30 01:51:07;;;;;;;1.00;0.70;;;6.70;70.00;;;;;;5161523;27;45739;-63
2022/01/30 01:53:33;;;;;;;1.30;1.00;;;6.70;69.90;;;;;;5158198;27;47032;-63
2022/01/30 01:55:59;;;;;;;1.53;0.90;;;6.70;69.90;;;;;;5151854;27;46353;-62
2022/01/30 01:58:27;;;;;;;1.10;0.70;;;6.70;69.70;;;;;;5152227;27;46439;-63
2022/01/30 02:00:52;;;;;;;1.10;0.80;;;6.70;70.00;;;;;;5151559;27;46462;-62
2022/01/30 02:03:19;;;;;;;1.07;0.80;;;6.80;69.80;;;;;;5155735;27;46443;-62
2022/01/30 02:05:54;;;;;;;1.03;0.80;;;6.70;69.70;;;;;;5156806;27;46352;-63
2022/01/30 02:08:31;;;;;;;1.03;0.80;;;6.70;69.60;;;;;;5152417;27;46490;-64
2022/01/30 02:24:43;;;;;;;1.00;0.80;;;6.50;70.70;;;;;;5155323;27;46337;-63
2022/01/30 02:27:19;;;;;;;1.27;0.73;;;6.40;71.10;;;;;;5156256;27;46247;-63
2022/01/30 02:29:45;;;;;;;1.13;0.80;;;6.40;71.80;;;;;;5149653;27;46362;-63
2022/01/30 02:32:10;;;;;;;1.63;0.80;;;6.40;72.10;;;;;;5152352;27;46676;-63
2022/01/30 02:34:36;;;;;;;1.00;0.80;;;6.40;71.90;;;;;;5154416;27;46537;-63
2022/01/30 02:37:02;;;;;;;1.10;0.90;;;6.40;72.70;;;;;;5153091;27;46301;-64
2022/01/30 02:39:28;;;;;;;1.10;0.90;;;6.50;71.10;;;;;;5154878;27;46350;-63
2022/01/30 02:41:55;;;;;;;1.10;0.77;;;6.60;70.70;;;;;;5157954;27;45919;-65
2022/01/30 02:44:25;;;;;;;1.03;0.80;;;6.60;70.40;;;;;;5160121;27;47122;-64
2022/01/30 02:46:55;;;;;;;1.10;0.70;;;6.70;70.50;;;;;;5156600;27;46434;-63
2022/01/30 02:51:56;;;;;;;1.00;0.70;;;6.70;70.10;;;;;;5150840;27;46064;-63
2022/01/30 02:54:22;;;;;;;0.90;0.70;;;6.60;70.00;;;;;;5153508;27;46503;-64
2022/01/30 02:56:48;;;;;;;1.10;0.90;;;6.60;70.10;;;;;;5156499;27;45803;-64
2022/01/30 02:59:14;;;;;;;1.10;0.80;;;6.60;70.10;;;;;;5156432;27;45756;-63
2022/01/30 03:01:40;;;;;;;0.97;0.70;;;6.60;70.10;;;;;;5152812;27;46301;-63
2022/01/30 03:04:05;;;;;;;1.30;0.70;;;6.60;70.00;;;;;;5156480;27;46376;-64
2022/01/30 03:06:31;;;;;;;1.23;0.80;;;6.60;70.10;;;;;;5157526;27;46267;-63
2022/01/30 03:08:57;;;;;;;1.00;0.73;;;6.60;70.00;;;;;;5149964;27;46414;-63
2022/01/30 03:11:24;;;;;;;1.20;0.90;;;6.60;70.00;;;;;;5150112;27;46404;-63
2022/01/30 03:13:49;;;;;;;1.20;0.80;;;6.60;70.00;;;;;;5160304;27;48170;-62
2022/01/30 03:16:15;;;;;;;1.20;0.80;;;6.60;70.10;;;;;;5154705;27;46436;-61
2022/01/30 03:18:41;;;;;;;1.83;0.70;;;6.60;70.20;;;;;;5149224;27;46285;-64
2022/01/30 03:21:07;;;;;;;1.10;0.70;;;6.60;70.20;;;;;;5149035;27;46510;-63
2022/01/30 03:23:37;;;;;;;1.10;0.77;;;6.60;70.10;;;;;;5156507;27;46402;-63
2022/01/30 03:26:03;;;;;;;1.77;0.70;;;6.60;70.00;;;;;;5151986;27;46837;-65
2022/01/30 03:28:30;;;;;;;1.03;0.80;;;6.60;70.10;;;;;;5154143;27;46375;-63
2022/01/30 03:31:00;;;;;;;1.20;0.80;;;6.60;70.10;;;;;;5152868;27;46587;-64
2022/01/30 03:33:25;;;;;;;3.20;0.70;;;6.50;70.30;;;;;;5155159;27;46304;-65
2022/01/30 03:35:51;;;;;;;1.10;0.83;;;6.40;70.40;;;;;;5150559;27;46262;-63
2022/01/30 03:38:19;;;;;;;1.10;0.80;;;6.40;70.60;;;;;;5160646;27;45839;-65
2022/01/30 03:40:45;;;;;;;2.00;0.80;;;6.40;70.50;;;;;;5153297;27;46334;-65
2022/01/30 03:43:11;;;;;;;0.80;0.70;;;6.40;70.40;;;;;;5152652;27;46460;-64
2022/01/30 03:45:37;;;;;;;1.40;0.80;;;6.40;70.40;;;;;;5151856;27;46581;-65
2022/01/30 03:48:03;;;;;;;1.23;0.93;;;6.40;70.50;;;;;;5154141;27;46461;-65
2022/01/30 03:50:30;;;;;;;1.77;0.87;;;6.40;70.40;;;;;;5158732;27;46275;-64
2022/01/30 03:52:55;;;;;;;0.97;0.70;;;6.40;70.50;;;;;;5157550;27;46387;-63
2022/01/30 03:55:22;;;;;;;2.33;0.70;;;6.40;70.50;;;;;;5160662;27;46456;-65
2022/01/30 03:57:47;;;;;;;1.00;0.70;;;6.40;70.50;;;;;;5156238;27;46372;-64
2022/01/30 04:00:14;;;;;;;0.87;0.70;;;6.40;70.40;;;;;;5149939;27;46627;-63
2022/01/30 04:02:39;;;;;;;1.73;0.80;;;6.40;70.50;;;;;;5156977;27;46457;-63
2022/01/30 04:05:05;;;;;;;1.20;0.97;;;6.40;70.50;;;;;;5156000;27;45811;-63
2022/01/30 04:07:32;;;;;;;0.93;0.73;;;6.40;70.50;;;;;;5155621;27;46408;-62
2022/01/30 04:09:57;;;;;;;1.10;0.80;;;6.40;70.50;;;;;;5156003;27;46622;-65
2022/01/30 04:12:23;;;;;;;1.20;0.77;;;6.40;70.50;;;;;;5155377;27;46598;-63
2022/01/30 04:14:49;;;;;;;1.13;0.90;;;6.40;70.70;;;;;;5153935;27;45968;-64
2022/01/30 04:17:18;;;;;;;2.27;0.90;;;6.30;70.60;;;;;;5149274;27;46436;-64
2022/01/30 04:19:43;;;;;;;1.10;0.80;;;6.30;70.60;;;;;;5157981;27;46376;-65
2022/01/30 04:22:09;;;;;;;1.40;0.97;;;6.30;70.70;;;;;;5154225;27;46276;-64
2022/01/30 04:24:35;;;;;;;1.03;0.80;;;6.30;70.90;;;;;;5149047;27;46511;-63
2022/01/30 04:27:00;;;;;;;1.10;0.80;;;6.30;71.00;;;;;;5161558;27;46440;-63
2022/01/30 04:29:26;;;;;;;0.93;0.70;;;6.30;71.30;;;;;;5161220;27;46245;-65
2022/01/30 04:31:52;;;;;;;1.17;0.80;;;6.30;71.30;;;;;;5152981;27;46975;-64
2022/01/30 04:34:19;;;;;;;1.80;1.07;;;6.20;71.30;;;;;;5154645;27;45799;-65
2022/01/30 04:37:00;;;;;;;1.20;0.70;;;6.20;71.30;;;;;;5154191;27;46282;-64
2022/01/30 04:53:35;;;;;;;1.10;0.97;;;6.30;71.30;;;;;;5149245;27;46340;-64
2022/01/30 05:02:01;;;;;;;1.27;0.70;;;6.20;73.10;;;;;;5154838;27;46393;-63
2022/01/30 05:06:42;;;;;;;1.07;0.70;;;6.20;73.20;;;;;;5159311;27;46419;-63
2022/01/30 05:09:08;;;;;;;5.53;0.67;;;6.20;73.10;;;;;;5162152;27;46492;-62
2022/01/30 05:11:33;;;;;;;1.53;0.70;;;6.20;74.50;;;;;;5161855;27;46346;-64
2022/01/30 05:13:59;;;;;;;1.63;0.90;;;6.10;74.60;;;;;;5147276;27;46487;-66
2022/01/30 05:16:25;;;;;;;0.90;0.70;;;6.10;74.60;;;;;;5158889;27;46646;-63
2022/01/30 05:18:51;;;;;;;1.40;0.87;;;6.10;74.60;;;;;;5158097;27;46436;-64
2022/01/30 05:21:18;;;;;;;1.00;0.70;;;6.20;74.70;;;;;;5156785;27;45905;-64
2022/01/30 05:23:44;;;;;;;2.37;0.70;;;6.20;74.70;;;;;;5158410;27;47052;-64
2022/01/30 05:26:11;;;;;;;2.60;0.70;;;6.20;74.70;;;;;;5159419;27;46388;-64
2022/01/30 05:28:36;;;;;;;2.00;0.90;;;6.20;74.70;;;;;;5155679;27;46495;-63
2022/01/30 05:31:02;;;;;;;0.70;0.60;;;6.30;74.00;;;;;;5159001;27;46366;-64
2022/01/30 05:33:28;;;;;;;1.63;0.90;;;6.30;74.70;;;;;;5154958;27;46916;-65
2022/01/30 05:35:54;;;;;;;1.40;0.80;;;6.10;74.60;;;;;;5151408;27;46423;-63
2022/01/30 05:38:22;;;;;;;1.67;0.90;;;6.00;75.60;;;;;;5152524;27;45875;-64
2022/01/30 05:40:48;;;;;;;5.30;1.00;;;5.90;77.10;;;;;;5154242;27;45943;-62
2022/01/30 05:43:14;;;;;;;1.00;0.80;;;5.80;78.30;;;;;;5156099;27;46472;-64
2022/01/30 05:45:44;;;;;;;1.47;0.90;;;5.80;79.40;;;;;;5151316;27;46355;-63
2022/01/30 05:48:15;;;;;;;1.03;0.60;;;5.70;80.10;;;;;;5147345;27;46362;-64
2022/01/30 05:50:42;;;;;;;0.97;0.70;;;5.70;80.40;;;;;;5154781;27;46524;-64
2022/01/30 05:53:08;;;;;;;1.00;0.77;;;5.70;80.60;;;;;;5155923;27;46393;-64
2022/01/30 05:55:34;;;;;;;1.07;0.70;;;5.70;80.30;;;;;;5155596;27;46366;-63
2022/01/30 05:58:00;;;;;;;1.50;1.00;;;5.80;80.20;;;;;;5157819;27;46342;-64
2022/01/30 06:00:26;;;;;;;1.07;0.80;;;5.80;79.90;;;;;;5155571;27;46639;-63
2022/01/30 06:02:52;;;;;;;0.97;0.70;;;5.80;79.70;;;;;;5148449;27;46409;-63
2022/01/30 06:05:20;;;;;;;0.90;0.60;;;5.80;79.90;;;;;;5156070;27;46424;-63
2022/01/30 06:07:57;;;;;;;0.80;0.60;;;5.70;80.40;;;;;;5153148;27;46323;-64
2022/01/30 06:10:25;;;;;;;1.00;0.80;;;5.80;80.50;;;;;;5155661;27;46745;-63
2022/01/30 06:12:50;;;;;;;1.07;0.80;;;5.70;80.90;;;;;;5151447;27;46437;-64
2022/01/30 06:15:16;;;;;;;1.73;0.90;;;5.70;81.00;;;;;;5149734;27;46510;-63
2022/01/30 06:17:43;;;;;;;1.23;0.90;;;5.70;80.90;;;;;;5150133;27;46361;-63
2022/01/30 06:20:09;;;;;;;1.57;0.80;;;5.80;81.20;;;;;;5150477;27;46505;-63
2022/01/30 06:22:35;;;;;;;1.93;0.90;;;5.70;81.40;;;;;;5151483;27;46297;-63
2022/01/30 06:25:01;;;;;;;1.03;0.70;;;5.70;81.70;;;;;;5150288;27;46463;-64
2022/01/30 06:27:27;;;;;;;1.60;0.90;;;5.60;82.00;;;;;;5153159;27;46376;-64
2022/01/30 06:29:52;;;;;;;2.40;0.90;;;5.60;82.70;;;;;;5153335;27;46341;-62
2022/01/30 06:32:18;;;;;;;1.20;0.90;;;5.60;82.80;;;;;;5150649;27;47892;-63
2022/01/30 06:34:43;;;;;;;1.00;0.70;;;5.60;83.10;;;;;;5156822;27;46641;-63
2022/01/30 06:37:09;;;;;;;1.07;0.70;;;5.50;83.60;;;;;;5149132;27;46392;-63
2022/01/30 06:39:35;;;;;;;2.40;1.03;;;5.50;84.80;;;;;;5149673;27;46479;-65
2022/01/30 06:42:00;;;;;;;1.80;1.20;;;5.60;83.90;;;;;;5152504;27;46376;-63
2022/01/30 06:44:26;;;;;;;1.00;0.77;;;5.50;84.20;;;;;;5150289;27;46403;-63
2022/01/30 06:46:51;;;;;;;0.90;0.70;;;5.50;84.40;;;;;;5151841;27;46457;-64
2022/01/30 06:49:17;;;;;;;0.80;0.70;;;5.40;84.70;;;;;;5149897;27;46400;-65
2022/01/30 06:51:42;;;;;;;0.80;0.70;;;5.50;84.40;;;;;;5151884;27;46205;-63
2022/01/30 06:54:08;;;;;;;1.20;0.87;;;5.50;84.80;;;;;;5155560;27;46248;-64
2022/01/30 06:56:34;;;;;;;1.00;0.80;;;5.50;83.50;;;;;;5155676;27;46391;-65
2022/01/30 06:58:59;;;;;;;1.40;0.80;;;5.30;84.10;;;;;;5156179;27;45935;-64
2022/01/30 07:01:26;;;;;;;1.00;0.80;;;5.30;84.30;;;;;;5149939;27;47243;-64
2022/01/30 07:03:52;;;;;;;1.20;0.80;;;5.30;84.40;;;;;;5150454;27;46392;-64
2022/01/30 07:06:18;;;;;;;4.40;1.90;;;5.20;84.60;;;;;;5154490;27;46507;-63
2022/01/30 07:08:43;;;;;;;2.60;1.40;;;5.20;84.70;;;;;;5157741;27;46467;-62
2022/01/30 07:11:09;;;;;;;1.97;1.47;;;5.10;85.00;;;;;;5159172;27;46406;-65
2022/01/30 07:13:35;;;;;;;7.27;3.67;;;5.10;85.40;;;;;;5155829;27;46498;-64
2022/01/30 07:16:00;;;;;;;4.73;2.30;;;5.20;85.10;;;;;;5152669;27;46462;-64
2022/01/30 07:18:26;;;;;;;2.50;1.70;;;5.30;84.60;;;;;;5150910;27;46439;-63
2022/01/30 07:20:51;;;;;;;0.90;0.80;;;5.40;84.10;;;;;;5152106;27;46497;-64
2022/01/30 07:23:17;;;;;;;2.07;1.30;;;5.50;83.80;;;;;;5156133;27;46614;-63
2022/01/30 07:25:44;;;;;;;2.10;1.10;;;5.50;83.60;;;;;;5154182;27;46426;-63
2022/01/30 07:28:10;;;;;;;1.53;1.03;;;5.50;83.50;;;;;;5158377;27;46099;-63
2022/01/30 07:30:36;;;;;;;1.20;0.87;;;5.60;83.40;;;;;;5156124;27;47160;-62
2022/01/30 07:33:03;;;;;;;1.10;0.70;;;5.60;83.30;;;;;;5154252;27;46400;-64
2022/01/30 07:35:29;;;;;;;1.20;0.90;;;5.70;83.30;;;;;;5151723;27;46558;-63
2022/01/30 07:37:54;;;;;;;7.87;1.10;;;5.80;83.00;;;;;;5151256;27;46485;-62
2022/01/30 07:40:21;;;;;;;1.87;1.37;;;5.80;82.80;;;;;;5150453;27;46372;-64
2022/01/30 07:42:47;;;;;;;2.50;1.30;;;5.90;82.80;;;;;;5151477;27;46065;-64
2022/01/30 07:45:12;;;;;;;2.00;1.50;;;5.90;82.30;;;;;;5154966;27;46326;-63
2022/01/30 07:47:38;;;;;;;1.30;0.90;;;6.00;82.00;;;;;;5155685;27;46519;-63
2022/01/30 07:50:04;;;;;;;1.30;0.90;;;6.00;81.60;;;;;;5153929;27;46251;-63
2022/01/30 07:52:30;;;;;;;1.10;0.97;;;5.90;81.80;;;;;;5162707;27;46379;-64
2022/01/30 07:54:56;;;;;;;1.50;0.73;;;5.90;82.30;;;;;;5155347;27;46368;-63
2022/01/30 07:57:22;;;;;;;1.30;0.80;;;5.90;82.20;;;;;;5158198;27;46388;-64
2022/01/30 07:59:48;;;;;;;1.77;1.03;;;5.80;82.90;;;;;;5154706;27;47193;-64
2022/01/30 08:02:14;;;;;;;1.63;0.80;;;5.70;83.50;;;;;;5158640;27;46571;-63
2022/01/30 08:04:40;;;;;;;1.10;0.80;;;5.70;82.90;;;;;;5155334;27;45800;-63
2022/01/30 08:07:06;;;;;;;1.23;0.90;;;5.60;83.80;;;;;;5151407;27;46551;-63
2022/01/30 08:09:31;;;;;;;1.77;1.37;;;5.50;84.40;;;;;;5157940;27;46533;-63
2022/01/30 08:11:57;;;;;;;1.13;1.00;;;5.40;84.70;;;;;;5155663;27;46378;-63
2022/01/30 08:14:23;;;;;;;4.93;3.00;;;5.60;84.40;;;;;;5152504;27;46464;-64
2022/01/30 08:16:49;;;;;;;5.47;2.80;;;5.70;84.10;;;;;;5155636;27;46365;-63
2022/01/30 08:19:15;;;;;;;6.70;1.30;;;5.70;83.70;;;;;;5153787;27;47745;-63
2022/01/30 08:21:41;;;;;;;3.83;1.70;;;5.80;83.50;;;;;;5159664;27;46316;-63
2022/01/30 08:24:07;;;;;;;7.20;1.80;;;5.90;83.10;;;;;;5159877;27;46503;-63
2022/01/30 08:26:32;;;;;;;2.13;1.60;;;6.20;82.30;;;;;;5156683;27;46697;-63
2022/01/30 08:28:58;;;;;;;1.20;0.90;;;6.30;81.40;;;;;;5154159;27;46297;-63
2022/01/30 08:31:23;;;;;;;3.03;1.00;;;6.40;80.70;;;;;;5147733;27;46435;-63
2022/01/30 08:33:49;;;;;;;3.47;1.23;;;6.50;80.10;;;;;;5160826;27;46436;-63
2022/01/30 08:36:15;;;;;;;5.33;1.30;;;6.70;79.90;;;;;;5155418;27;46365;-63
2022/01/30 08:38:40;;;;;;;1.20;0.87;;;6.80;78.90;;;;;;5157169;27;47218;-62
2022/01/30 08:41:06;;;;;;;2.70;1.40;;;6.90;78.70;;;;;;5153373;27;46375;-63
2022/01/30 08:43:32;;;;;;;1.47;0.93;;;6.80;78.10;;;;;;5156080;27;46380;-62
2022/01/30 08:45:59;;;;;;;2.80;1.17;;;6.90;79.10;;;;;;5152859;27;45874;-63
2022/01/30 08:48:25;;;;;;;5.50;1.60;;;6.90;77.60;;;;;;5150746;27;46368;-63
2022/01/30 08:50:51;;;;;;;9.33;1.13;;;6.90;77.70;;;;;;5152005;27;46423;-64
2022/01/30 08:53:17;;;;;;;4.80;1.50;;;6.70;77.00;;;;;;5154337;27;46460;-63
2022/01/30 08:55:43;;;;;;;9.33;2.13;;;6.50;76.10;;;;;;5151343;27;46363;-63
2022/01/30 08:58:09;;;;;;;5.30;1.60;;;6.20;76.20;;;;;;5157368;27;46697;-63
2022/01/30 09:00:36;;;;;;;4.67;1.43;;;6.10;74.70;;;;;;5154346;27;46334;-63
2022/01/30 09:03:04;;;;;;;2.30;1.33;;;6.10;74.60;;;;;;5152938;27;45853;-63
2022/01/30 09:05:31;;;;;;;4.40;1.30;;;6.30;74.70;;;;;;5153370;27;46340;-63
2022/01/30 09:07:57;;;;;;;2.77;1.40;;;6.40;74.90;;;;;;5155891;27;46427;-63
2022/01/30 09:10:23;;;;;;;8.13;1.47;;;6.50;74.90;;;;;;5153687;27;46382;-63
2022/01/30 09:12:49;;;;;;;10.63;2.20;;;6.50;75.00;;;;;;5157836;27;46405;-62
2022/01/30 09:15:16;;;;;;;5.07;1.90;;;6.50;74.80;;;;;;5158095;27;46585;-62
2022/01/30 09:17:43;;;;;;;4.73;1.60;;;6.40;74.90;;;;;;5150073;27;46227;-63
2022/01/30 09:20:09;;;;;;;5.57;1.60;;;6.40;74.90;;;;;;5149644;27;46376;-63
2022/01/30 09:22:35;;;;;;;2.90;1.50;;;6.50;74.90;;;;;;5152524;27;46227;-63
2022/01/30 09:25:01;;;;;;;7.80;1.50;;;6.50;74.90;;;;;;5154748;27;46386;-62
2022/01/30 09:27:26;;;;;;;5.57;2.10;;;6.50;73.90;;;;;;5148296;27;46357;-62
2022/01/30 09:29:52;;;;;;;5.97;2.70;;;6.50;72.90;;;;;;5156555;27;46458;-63
2022/01/30 09:32:18;;;;;;;10.10;2.20;;;6.50;72.40;;;;;;5153263;27;46441;-62
2022/01/30 09:34:43;;;;;;;13.27;1.93;;;6.50;71.10;;;;;;5154658;27;46457;-64
2022/01/30 09:37:10;;;;;;;12.30;3.83;;;6.40;70.70;;;;;;5158438;27;48291;-63
2022/01/30 09:39:37;;;;;;;6.10;1.83;;;6.60;70.50;;;;;;5160882;27;46431;-63
2022/01/30 09:42:03;;;;;;;8.50;1.90;;;6.60;70.30;;;;;;5158142;27;46310;-63
2022/01/30 09:44:30;;;;;;;6.40;2.37;;;6.50;70.30;;;;;;5152457;27;46308;-64
2022/01/30 09:46:55;;;;;;;6.13;2.00;;;6.50;71.20;;;;;;5151081;27;48209;-63
2022/01/30 09:49:25;;;;;;;6.40;1.70;;;6.50;70.00;;;;;;5159330;27;46561;-62
2022/01/30 09:51:53;;;;;;;7.30;2.33;;;6.50;70.00;;;;;;5155903;27;46316;-62
2022/01/30 09:54:19;;;;;;;11.73;2.37;;;6.50;70.00;;;;;;5152507;27;46725;-73
2022/01/30 09:56:45;;;;;;;9.95;2.17;;;6.60;70.10;;;;;;5153031;27;46558;-64
2022/01/30 09:59:10;;;;;;;7.17;2.50;;;6.70;70.00;;;;;;5151945;27;46377;-65
2022/01/30 10:01:37;;;;;;;4.43;1.70;;;6.70;70.30;;;;;;5154146;27;46642;-64
2022/01/30 10:04:05;;;;;;;7.07;2.10;;;6.80;70.10;;;;;;5158416;27;46659;-66
2022/01/30 10:06:37;;;;;;;9.23;3.47;;;6.90;70.30;;;;;;5156262;27;47373;-64
2022/01/30 10:09:24;;;;;;;6.93;2.50;;;7.20;70.20;;;;;;5146524;27;46333;-65
2022/01/30 10:12:00;;;;;;;7.47;2.20;;;7.40;69.80;;;;;;5157754;27;46400;-61
2022/01/30 10:14:27;;;;;;;4.43;1.80;;;7.70;69.30;;;;;;5153838;27;46383;-65
2022/01/30 10:16:52;;;;;;;17.63;3.00;;;7.90;68.80;;;;;;5151023;27;48482;-64
2022/01/30 10:19:23;;;;;;;7.90;2.17;;;8.00;68.50;;;;;;5148901;27;46349;-64
2022/01/30 10:22:04;;;;;;;12.10;2.37;;;7.90;67.80;;;;;;5153509;27;46296;-62
2022/01/30 10:24:31;;;;;;;11.20;1.80;;;7.80;67.90;;;;;;5159790;27;46450;-64
2022/01/30 10:26:59;;;;;;;5.07;1.43;;;7.90;67.60;;;;;;5158401;27;46369;-63
2022/01/30 10:29:26;;;;;;;15.17;3.20;;;8.00;67.00;;;;;;5153889;27;46798;-63
2022/01/30 10:32:05;;;;;;;5.67;1.80;;;7.80;65.90;;;;;;5151412;27;46487;-62
2022/01/30 10:34:32;;;;;;;4.00;1.50;;;7.70;66.40;;;;;;5147371;27;46312;-63
2022/01/30 10:37:19;;;;;;;9.70;1.77;;;7.40;66.20;;;;;;5165109;27;47088;-63
2022/01/30 10:40:07;;;;;;;5.73;1.70;;;7.30;67.60;;;;;;5153233;27;45830;-64
2022/01/30 10:42:42;;;;;;;10.50;2.10;;;7.30;67.70;;;;;;5153453;27;46404;-63
2022/01/30 10:45:29;;;;;;;5.30;2.00;;;7.30;66.80;;;;;;5152336;27;46475;-66
2022/01/30 10:48:18;;;;;;;9.90;1.90;;;7.20;66.20;;;;;;5152044;27;47173;-62
2022/01/30 10:50:47;;;;;;;6.97;1.80;;;7.20;65.60;;;;;;5147459;27;46298;-65
2022/01/30 10:53:24;;;;;;;8.43;1.92;;;7.30;65.90;;;;;;5156235;27;46380;-64
2022/01/30 10:55:50;;;;;;;5.67;1.70;;;7.10;65.20;;;;;;5151845;27;46591;-63
2022/01/30 10:58:21;;;;;;;6.87;1.73;;;7.10;65.70;;;;;;5148992;27;46430;-64
2022/01/30 11:00:59;;;;;;;7.90;2.97;;;7.20;64.60;;;;;;5154332;27;46490;-64
2022/01/30 11:03:40;;;;;;;5.53;1.97;;;7.20;63.00;;;;;;5156327;27;46463;-64
2022/01/30 11:06:10;;;;;;;7.10;1.87;;;7.30;62.90;;;;;;5152990;27;46515;-65
2022/01/30 11:08:39;;;;;;;5.03;1.90;;;7.30;61.30;;;;;;5157328;27;46008;-64
2022/01/30 11:11:19;;;;;;;9.77;1.80;;;7.30;61.20;;;;;;5156749;27;46580;-63
2022/01/30 11:14:00;;;;;;;6.90;1.50;;;7.10;61.80;;;;;;5154378;27;45831;-63
2022/01/30 11:19:12;;;;;;;9.23;2.37;;;7.20;60.00;;;;;;5156430;27;46653;-64
2022/01/30 11:21:39;;;;;;;5.60;1.60;;;7.20;58.60;;;;;;5159160;27;46301;-65
2022/01/30 11:24:07;;;;;;;5.60;1.50;;;7.10;57.70;;;;;;5149860;27;46459;-63
2022/01/30 11:26:33;;;;;;;3.43;1.17;;;7.00;57.70;;;;;;5148193;27;46485;-64
2022/01/30 11:29:00;;;;;;;4.47;1.53;;;6.90;58.50;;;;;;5147223;27;46675;-63
2022/01/30 11:31:25;;;;;;;5.70;1.70;;;6.90;58.90;;;;;;5149245;27;46407;-64
2022/01/30 11:33:52;;;;;;;8.00;1.73;;;7.00;59.70;;;;;;5152305;27;45927;-63
2022/01/30 11:36:21;;;;;;;9.13;2.10;;;7.20;59.30;;;;;;5155594;27;46238;-63
2022/01/30 11:38:47;;;;;;;4.57;1.77;;;7.20;58.60;;;;;;5156458;27;46274;-65
2022/01/30 11:41:16;;;;;;;6.47;1.97;;;7.30;58.20;;;;;;5156421;27;46595;-64
2022/01/30 11:44:19;;;;;;;6.83;1.57;;;7.30;57.80;;;;;;5154411;27;46434;-64
2022/01/30 11:46:51;;;;;;;8.45;1.33;;;7.20;57.30;;;;;;5149672;27;46353;-63
2022/01/30 11:49:17;;;;;;;8.23;2.10;;;7.40;57.70;;;;;;5153070;27;46866;-63
2022/01/30 11:51:52;;;;;;;5.83;1.47;;;7.50;57.00;;;;;;5155709;27;46320;-63
2022/01/30 11:54:34;;;;;;;8.20;1.77;;;7.50;56.90;;;;;;5155149;27;46396;-63
2022/01/30 11:56:59;;;;;;;5.37;1.40;;;7.50;57.10;;;;;;5162224;27;46501;-64
2022/01/30 11:59:39;;;;;;;6.07;1.80;;;7.40;56.80;;;;;;5157473;27;47494;-63
2022/01/30 12:02:28;;;;;;;9.60;1.80;;;7.40;57.30;;;;;;5156357;27;46513;-63
2022/01/30 12:05:05;;;;;;;6.10;1.60;;;7.40;56.60;;;;;;5157954;27;46317;-63
2022/01/30 12:07:37;;;;;;;4.27;1.43;;;7.40;56.70;;;;;;5157992;27;46424;-64
2022/01/30 12:13:07;;;;;;;3.07;1.43;;;7.30;56.80;;;;;;5148182;27;45830;-64
2022/01/30 12:15:41;;;;;;;6.97;1.20;;;7.20;55.90;;;;;;5157940;27;46425;-63
2022/01/30 12:18:43;;;;;;;9.07;1.50;;;7.20;55.10;;;;;;5156171;27;46776;-63
2022/01/30 12:21:09;;;;;;;12.33;1.90;;;7.20;55.50;;;;;;5150348;27;46326;-64
2022/01/30 12:23:36;;;;;;;4.13;1.30;;;7.20;53.90;;;;;;5156475;27;46439;-65
2022/01/30 12:26:05;;;;;;;9.67;1.40;;;7.20;53.60;;;;;;5160300;27;46413;-63
2022/01/30 12:28:48;;;;;;;4.17;1.50;;;7.30;53.90;;;;;;5158652;27;45843;-65
2022/01/30 12:31:34;;;;;;;8.10;2.20;;;7.30;53.80;;;;;;5157523;27;46985;-64
2022/01/30 12:34:15;;;;;;;9.13;2.70;;;7.50;54.60;;;;;;5155622;27;46509;-64
2022/01/30 12:36:43;;;;;;;9.17;2.00;;;7.40;52.60;;;;;;5151886;27;46367;-63
2022/01/30 12:39:21;;;;;;;5.37;1.67;;;7.40;52.40;;;;;;5155755;27;45866;-64
2022/01/30 12:41:47;;;;;;;5.70;1.20;;;7.40;51.90;;;;;;5155883;27;47224;-64
2022/01/30 12:44:15;;;;;;;13.17;1.63;;;7.40;51.00;;;;;;5153609;27;46432;-63
2022/01/30 12:46:47;;;;;;;4.90;1.50;;;7.30;50.80;;;;;;5158010;27;46471;-63
2022/01/30 12:49:29;;;;;;;6.13;1.90;;;7.30;50.30;;;;;;5156209;27;46364;-63
2022/01/30 12:51:56;;;;;;;2.97;1.63;;;7.30;50.60;;;;;;5150382;27;46283;-64
2022/01/30 12:54:27;;;;;;;4.53;1.63;;;7.40;50.50;;;;;;5159819;27;46443;-64
2022/01/30 12:56:54;;;;;;;4.97;1.60;;;7.40;50.40;;;;;;5155600;27;46396;-65
2022/01/30 12:59:23;;;;;;;4.80;2.00;;;7.40;50.40;;;;;;5155240;27;46304;-62
2022/01/30 13:01:50;;;;;;;6.60;1.70;;;7.40;50.40;;;;;;5147271;27;47010;-64
2022/01/30 13:04:18;;;;;;;9.30;1.60;;;7.40;50.40;;;;;;5159777;27;46332;-65
2022/01/30 13:06:51;;;;;;;2.47;1.27;;;7.40;50.40;;;;;;5153857;27;46412;-64
2022/01/30 13:09:28;;;;;;;5.97;1.47;;;7.30;50.30;;;;;;5155431;27;46309;-62
2022/01/30 13:12:02;;;;;;;3.90;1.43;;;7.30;50.30;;;;;;5153265;27;46937;-64
2022/01/30 13:14:37;;;;;;;9.90;1.73;;;7.30;50.30;;;;;;5157790;27;46624;-63
2022/01/30 13:17:03;;;;;;;7.23;1.90;;;7.40;50.50;;;;;;5151036;27;46503;-64
2022/01/30 13:19:31;;;;;;;7.97;2.10;;;7.50;50.50;;;;;;5152878;27;46420;-64
2022/01/30 13:21:57;;;;;;;3.00;1.37;;;7.50;50.50;;;;;;5155592;27;46317;-63
2022/01/30 13:24:23;;;;;;;9.97;2.93;;;7.50;50.50;;;;;;5152868;27;46462;-63
2022/01/30 13:27:01;;;;;;;5.00;1.80;;;7.50;50.50;;;;;;5150531;27;46339;-63
2022/01/30 13:29:27;;;;;;;4.90;1.60;;;7.50;50.70;;;;;;5153317;27;46365;-63
2022/01/30 13:31:54;;;;;;;3.57;1.40;;;7.50;50.50;;;;;;5151496;27;47115;-65
2022/01/30 13:34:28;;;;;;;5.53;1.50;;;7.30;50.30;;;;;;5153097;27;46378;-64
2022/01/30 13:37:07;;;;;;;4.97;1.40;;;7.30;49.50;;;;;;5153272;27;46377;-63
2022/01/30 13:39:44;;;;;;;5.27;1.37;;;7.40;49.60;;;;;;5153893;27;46435;-64
2022/01/30 13:47:55;;;;;;;5.53;1.67;;;7.50;49.40;;;;;;5160220;27;46419;-63
2022/01/30 13:50:24;;;;;;;7.43;1.80;;;7.40;49.20;;;;;;5150705;27;46252;-64
2022/01/30 13:53:06;;;;;;;9.93;1.90;;;7.40;49.20;;;;;;5155500;27;46509;-64
2022/01/30 13:55:34;;;;;;;11.23;1.83;;;7.40;49.40;;;;;;5155537;27;46412;-63
2022/01/30 13:58:00;;;;;;;6.80;1.77;;;7.40;48.70;;;;;;5154261;27;46315;-63
2022/01/30 14:00:34;;;;;;;15.17;1.83;;;7.50;48.70;;;;;;5158366;27;46276;-63
2022/01/30 14:03:08;;;;;;;5.73;1.57;;;7.50;48.00;;;;;;5156765;27;46492;-65
2022/01/30 14:05:39;;;;;;;9.53;2.10;;;7.30;48.10;;;;;;5158280;27;46439;-65
2022/01/30 14:08:10;;;;;;;8.40;1.90;;;7.20;49.70;;;;;;5156613;27;46485;-66
2022/01/30 14:10:36;;;;;;;9.50;2.10;;;7.20;48.70;;;;;;5152941;27;46387;-64